Aviation Digital Data Service (ADDS)

Output produced by METARs form (0134 UTC 23 November 2017)
found at http://www.aviationweather.gov/adds/metars/
 
GABS 230100Z VRB02KT 3000 DU NSC 22/08 Q1014 NOSIG
TAF GABS 222310Z 2300/2406 06006KT 4000 DU NSC 
     TEMPO 2300/2307 1500
       
TAF GAGO 222313Z 2300/2324 08010G20KT 4500 DU NSC 
     PROB40 
     TEMPO 2306/2312 2000
       
GAKY 222100Z 02004KT 6000 NSC 29/07 Q1011
GABS 230100Z VRB02KT 3000 DU NSC 22/08 Q1014 NOSIG
TAF GABS 222310Z 2300/2406 06006KT 4000 DU NSC 
     TEMPO 2300/2307 1500
       
TAF GAGO 222313Z 2300/2324 08010G20KT 4500 DU NSC 
     PROB40 
     TEMPO 2306/2312 2000
       
GAKY 222100Z 02004KT 6000 NSC 29/07 Q1011
GAMB 230000Z 00000KT 0500 DU NSC 24/17 Q1012
GANR 230000Z 00000KT 7000 NSC 25/11 Q1014
GAMB 230000Z 00000KT 0500 DU NSC 24/17 Q1012
GANR 230000Z 00000KT 7000 NSC 25/11 Q1014